Time;durP1;ratioP1;P1;durP2;ratioP2;P2;SDS_P1;SDS_P2;PMS_P1;PMS_P2;Temp;Humidity;BMP_temperature;BMP_pressure;BME280_temperature;BME280_humidity;BME280_pressure;Samples;Min_cycle;Max_cycle;Signal;HPM_P1;HPM_P2
2022/07/02 00:06:42;;;;;;;4.32;1.80;;;13.70;99.90;;;;;;21056590;28;20086;-57
2022/07/02 00:16:47;;;;;;;3.58;2.05;;;13.70;99.90;;;;;;21056081;28;20036;-57
2022/07/02 00:26:57;;;;;;;4.53;2.63;;;13.50;99.90;;;;;;21098328;28;20369;-57
2022/07/02 00:36:59;;;;;;;5.03;2.53;;;13.40;99.90;;;;;;21138497;28;20065;-56
2022/07/02 00:47:08;;;;;;;3.25;2.42;;;13.40;99.90;;;;;;21137804;28;20053;-57
2022/07/02 00:57:11;;;;;;;10.00;2.50;;;13.20;99.90;;;;;;21097363;28;20636;-57
2022/07/02 01:07:16;;;;;;;3.65;2.20;;;13.20;99.90;;;;;;21052278;28;20036;-58
2022/07/02 01:17:19;;;;;;;7.30;2.45;;;13.10;99.90;;;;;;21051859;28;20418;-50
2022/07/02 01:27:23;;;;;;;6.43;3.22;;;12.90;99.90;;;;;;21051314;28;20048;-58
2022/07/02 01:37:25;;;;;;;4.57;2.97;;;13.10;99.90;;;;;;21050537;28;20097;-57
2022/07/02 01:47:27;;;;;;;4.85;3.20;;;13.10;99.90;;;;;;21050202;28;20082;-57
2022/07/02 01:57:33;;;;;;;5.10;3.35;;;13.30;99.90;;;;;;21049689;28;20032;-57
2022/07/02 02:07:35;;;;;;;5.25;3.40;;;13.40;99.90;;;;;;21058114;28;20370;-57
2022/07/02 02:17:38;;;;;;;6.90;3.42;;;13.10;99.90;;;;;;21065444;28;20389;-57
2022/07/02 02:27:40;;;;;;;3.95;3.15;;;13.00;99.90;;;;;;21064511;28;20040;-57
2022/07/02 02:37:43;;;;;;;8.43;2.85;;;13.00;99.90;;;;;;21064922;28;20070;-57
2022/07/02 02:47:45;;;;;;;4.28;2.58;;;13.00;99.90;;;;;;21063230;28;20081;-56
2022/07/02 02:57:47;;;;;;;6.53;2.80;;;12.80;99.90;;;;;;21061920;28;20032;-56
2022/07/02 03:07:50;;;;;;;6.15;3.10;;;12.90;99.90;;;;;;21061672;28;20312;-48
2022/07/02 03:17:52;;;;;;;4.18;2.65;;;12.90;99.90;;;;;;21061176;28;20036;-56
2022/07/02 03:27:54;;;;;;;5.93;3.13;;;13.10;99.90;;;;;;21059806;28;20077;-56
2022/07/02 03:37:58;;;;;;;4.95;2.30;;;13.10;99.90;;;;;;21059109;28;20443;-48
2022/07/02 03:48:00;;;;;;;6.72;3.20;;;13.10;99.90;;;;;;21095084;28;20039;-56
2022/07/02 03:58:02;;;;;;;5.22;2.80;;;12.90;99.90;;;;;;21141549;28;20065;-56
2022/07/02 04:08:05;;;;;;;3.90;2.65;;;13.00;99.90;;;;;;21140994;28;20045;-56
2022/07/02 04:18:07;;;;;;;4.43;2.25;;;13.40;99.90;;;;;;21123327;28;20027;-56
2022/07/02 04:28:10;;;;;;;4.28;2.10;;;13.80;99.90;;;;;;21138013;28;20048;-56
2022/07/02 04:38:13;;;;;;;3.22;2.20;;;14.00;99.90;;;;;;21138618;28;20044;-57
2022/07/02 04:48:15;;;;;;;2.95;1.85;;;14.30;99.90;;;;;;21138256;28;20377;-57
2022/07/02 04:58:18;;;;;;;3.03;2.00;;;14.30;99.90;;;;;;21138657;28;20476;-49
2022/07/02 05:08:24;;;;;;;1.52;1.30;;;14.40;99.90;;;;;;21136635;28;20563;-56
2022/07/02 05:18:26;;;;;;;1.65;1.52;;;14.60;99.90;;;;;;21135841;28;20429;-57
2022/07/02 05:28:28;;;;;;;1.80;1.20;;;14.70;99.90;;;;;;21135274;28;20074;-57
2022/07/02 05:38:31;;;;;;;4.38;1.50;;;14.90;99.90;;;;;;21134636;28;20036;-57
2022/07/02 05:48:36;;;;;;;3.45;1.42;;;15.00;99.90;;;;;;21108330;28;20031;-57
2022/07/02 05:58:38;;;;;;;2.92;1.75;;;15.10;99.90;;;;;;21133734;28;20112;-58
2022/07/02 06:08:40;;;;;;;3.55;1.50;;;15.30;99.90;;;;;;21133545;28;20035;-58
2022/07/02 06:18:43;;;;;;;1.35;1.10;;;17.20;99.90;;;;;;21133207;28;20085;-57
2022/07/02 06:28:45;;;;;;;3.95;1.35;;;23.20;94.70;;;;;;21097814;28;20039;-58
2022/07/02 06:38:49;;;;;;;1.70;1.10;;;24.80;90.30;;;;;;21132530;28;20040;-59
2022/07/02 06:48:51;;;;;;;3.05;1.20;;;26.60;93.50;;;;;;21115832;28;20043;-57
2022/07/02 06:58:53;;;;;;;2.22;1.42;;;27.50;90.60;;;;;;21145491;28;20128;-57
2022/07/02 07:08:55;;;;;;;1.73;1.20;;;27.60;88.50;;;;;;21145858;28;20088;-60
2022/07/02 07:19:02;;;;;;;2.60;1.17;;;27.90;86.80;;;;;;21144900;28;20036;-59
2022/07/02 07:29:06;;;;;;;3.83;1.67;;;28.50;80.90;;;;;;21144085;28;20047;-61
2022/07/02 07:39:09;;;;;;;3.40;1.88;;;31.40;73.50;;;;;;21143178;28;20036;-61
2022/07/02 07:49:11;;;;;;;;;;;31.80;73.10;;;;;;21142811;28;20031;-63
2022/07/02 07:59:13;;;;;;;2.77;2.17;;;32.00;71.70;;;;;;21142122;28;19927;-61
2022/07/02 08:09:16;;;;;;;5.40;2.10;;;31.30;71.20;;;;;;21140936;28;20088;-61
2022/07/02 08:19:19;;;;;;;5.03;2.50;;;31.00;71.00;;;;;;21139719;28;20346;-60
2022/07/02 08:29:21;;;;;;;3.97;2.13;;;30.80;73.80;;;;;;21138830;28;20052;-58
2022/07/02 08:39:25;;;;;;;3.58;2.55;;;30.60;74.90;;;;;;21138483;28;20442;-61
2022/07/02 08:49:30;;;;;;;5.13;2.80;;;30.00;75.90;;;;;;21136928;28;20032;-61
2022/07/02 08:59:33;;;;;;;4.43;2.60;;;29.90;76.90;;;;;;21136295;28;20092;-61
2022/07/02 09:09:36;;;;;;;4.95;3.00;;;30.20;78.90;;;;;;21136455;28;20031;-61
2022/07/02 09:19:39;;;;;;;6.45;2.88;;;30.40;82.00;;;;;;21135015;28;20388;-62
2022/07/02 09:29:44;;;;;;;7.87;3.20;;;30.30;78.50;;;;;;21118141;28;20059;-60
2022/07/02 09:39:49;;;;;;;5.65;2.88;;;30.20;80.80;;;;;;21135491;28;20113;-62
2022/07/02 09:49:52;;;;;;;5.03;2.72;;;28.90;84.90;;;;;;21158654;28;20048;-61
2022/07/02 10:00:08;;;;;;;3.63;2.90;;;29.50;82.80;;;;;;21134222;28;20534;-61
2022/07/02 10:10:12;;;;;;;6.05;3.30;;;29.70;79.70;;;;;;21133199;28;20036;-61
2022/07/02 10:20:17;;;;;;;6.05;4.13;;;29.70;79.70;;;;;;21133051;28;20440;-62
2022/07/02 10:30:21;;;;;;;6.07;3.77;;;30.10;78.60;;;;;;21134299;28;20051;-61
2022/07/02 10:40:24;;;;;;;9.10;4.20;;;28.80;84.90;;;;;;21148111;28;20031;-62
2022/07/02 10:50:47;;;;;;;9.93;5.07;;;29.90;85.70;;;;;;21147789;28;20392;-62
2022/07/02 11:00:50;;;;;;;9.63;6.43;;;31.00;80.80;;;;;;21146608;28;20036;-61
2022/07/02 11:10:53;;;;;;;9.55;6.10;;;30.70;78.00;;;;;;21129689;28;20532;-61
2022/07/02 11:20:56;;;;;;;6.85;4.40;;;28.90;84.80;;;;;;21162055;28;20044;-62
2022/07/02 11:30:59;;;;;;;6.28;4.00;;;30.00;84.90;;;;;;21144211;28;20043;-62
2022/07/02 11:41:03;;;;;;;6.97;4.70;;;31.20;81.90;;;;;;21143647;28;20048;-61
2022/07/02 11:51:06;;;;;;;7.55;4.13;;;30.80;82.80;;;;;;21142850;28;20084;-62
2022/07/02 12:01:21;;;;;;;4.75;4.03;;;29.70;86.10;;;;;;21141816;28;20101;-62
2022/07/02 12:11:24;;;;;;;12.13;5.07;;;30.50;83.40;;;;;;21141246;28;20047;-62
2022/07/02 12:21:34;;;;;;;6.30;4.45;;;31.30;80.50;;;;;;21140052;28;20031;-61
2022/07/02 12:32:03;;;;;;;7.45;4.28;;;31.80;77.00;;;;;;21139514;28;20116;-63
2022/07/02 12:42:17;;;;;;;12.85;4.55;;;31.30;77.40;;;;;;21138346;28;20036;-62
2022/07/02 12:52:19;;;;;;;10.88;4.53;;;31.40;80.30;;;;;;21136587;28;20069;-57
2022/07/02 13:02:25;;;;;;;7.55;4.75;;;31.10;77.50;;;;;;21051399;28;20105;-57
2022/07/02 13:12:28;;;;;;;5.95;5.00;;;30.90;78.30;;;;;;21051789;28;20032;-61
2022/07/02 13:22:31;;;;;;;8.50;4.50;;;30.70;77.80;;;;;;21051486;28;20051;-62
2022/07/02 13:32:33;;;;;;;5.68;4.15;;;31.10;79.50;;;;;;21114966;28;20112;-61
2022/07/02 13:42:37;;;;;;;5.55;4.20;;;31.30;79.30;;;;;;21134151;28;20040;-59
2022/07/02 13:52:40;;;;;;;6.75;4.00;;;29.60;78.40;;;;;;21127103;28;20027;-59
2022/07/02 14:02:44;;;;;;;5.53;3.33;;;27.50;82.00;;;;;;21141148;28;20388;-56
2022/07/02 14:12:48;;;;;;;4.63;3.70;;;26.90;86.40;;;;;;21133659;28;20036;-62
2022/07/02 14:22:51;;;;;;;7.60;4.60;;;29.00;83.80;;;;;;21149215;28;20557;-60
2022/07/02 14:32:53;;;;;;;8.13;3.67;;;29.80;77.60;;;;;;21148743;28;20097;-60
2022/07/02 14:42:57;;;;;;;4.45;3.40;;;27.80;81.80;;;;;;21148184;28;20031;-60
2022/07/02 14:53:01;;;;;;;6.53;3.40;;;29.00;80.60;;;;;;21145974;28;20039;-60
2022/07/02 15:03:03;;;;;;;6.65;3.03;;;27.80;83.00;;;;;;21146719;28;20040;-60
2022/07/02 15:13:06;;;;;;;5.25;3.10;;;28.90;78.50;;;;;;21145084;28;20024;-59
2022/07/02 15:23:10;;;;;;;5.53;3.17;;;26.70;82.90;;;;;;21144556;28;20081;-59
2022/07/02 15:33:16;;;;;;;5.15;3.30;;;25.00;88.10;;;;;;21143927;28;20052;-60
2022/07/02 15:43:19;;;;;;;8.63;3.47;;;25.30;89.00;;;;;;21142751;28;20059;-60
2022/07/02 15:53:26;;;;;;;5.03;3.20;;;26.80;84.30;;;;;;21141867;28;20039;-59
2022/07/02 16:03:34;;;;;;;8.43;3.08;;;27.60;82.90;;;;;;21158911;28;20077;-60
2022/07/02 16:13:37;;;;;;;4.88;3.42;;;27.00;82.50;;;;;;21157825;28;20036;-60
2022/07/02 16:23:41;;;;;;;5.80;3.90;;;26.30;84.00;;;;;;21157043;28;20346;-59
2022/07/02 16:34:31;;;;;;;3.78;2.90;;;25.60;83.80;;;;;;21138350;28;20063;-59
2022/07/02 16:44:39;;;;;;;11.57;4.00;;;25.20;86.70;;;;;;21123660;28;20047;-59
2022/07/02 16:54:45;;;;;;;5.20;3.47;;;25.10;86.60;;;;;;21136135;28;20031;-59
2022/07/02 17:04:49;;;;;;;6.13;3.35;;;23.80;89.00;;;;;;21136791;28;20031;-59
2022/07/02 17:14:52;;;;;;;8.23;3.97;;;21.50;91.10;;;;;;21136205;28;20514;-58
2022/07/02 17:24:54;;;;;;;4.35;3.20;;;21.30;91.40;;;;;;21134891;28;20036;-58
2022/07/02 17:34:57;;;;;;;5.95;3.10;;;20.60;93.20;;;;;;21066775;28;20102;-59
2022/07/02 17:45:00;;;;;;;4.65;2.97;;;20.20;93.90;;;;;;21049570;28;20062;-59
2022/07/02 17:55:04;;;;;;;5.28;3.05;;;19.60;95.00;;;;;;21049687;28;20484;-50
2022/07/02 18:05:06;;;;;;;4.88;3.33;;;19.40;96.20;;;;;;21049548;28;20070;-58
2022/07/02 18:15:09;;;;;;;5.30;3.13;;;19.40;95.50;;;;;;21049386;28;20430;-59
2022/07/02 18:25:12;;;;;;;4.95;3.20;;;19.20;95.60;;;;;;21067031;28;20028;-57
2022/07/02 18:35:14;;;;;;;5.47;3.60;;;19.00;96.70;;;;;;21132164;28;20549;-58
2022/07/02 18:45:18;;;;;;;10.25;3.78;;;18.80;96.90;;;;;;21131264;28;20088;-57
2022/07/02 18:55:21;;;;;;;4.80;3.35;;;18.70;96.70;;;;;;21120600;28;20032;-58
2022/07/02 19:05:23;;;;;;;4.47;3.30;;;18.40;97.70;;;;;;21057706;28;20473;-57
2022/07/02 19:15:27;;;;;;;5.15;3.60;;;18.10;97.80;;;;;;21057352;28;20507;-57
2022/07/02 19:25:29;;;;;;;5.95;3.10;;;17.80;97.80;;;;;;21058342;28;20058;-57
2022/07/02 19:35:34;;;;;;;7.93;4.57;;;17.50;98.10;;;;;;21058619;28;20032;-57
2022/07/02 19:45:41;;;;;;;4.55;3.60;;;17.30;99.10;;;;;;21056234;28;20111;-57
2022/07/02 19:55:44;;;;;;;6.03;4.00;;;17.20;99.70;;;;;;21056451;28;20059;-58
2022/07/02 20:05:47;;;;;;;6.80;3.60;;;17.10;99.90;;;;;;21054846;28;20036;-58
2022/07/02 20:15:49;;;;;;;5.63;3.42;;;17.00;99.90;;;;;;21053775;28;20370;-58
2022/07/02 20:25:52;;;;;;;5.25;3.30;;;16.90;99.90;;;;;;21051881;28;20090;-49
2022/07/02 20:35:55;;;;;;;6.72;3.03;;;16.70;99.90;;;;;;21051224;28;20453;-58
2022/07/02 20:45:57;;;;;;;7.47;4.25;;;16.80;99.90;;;;;;21050567;28;20039;-49
2022/07/02 20:56:00;;;;;;;5.40;2.92;;;16.80;99.90;;;;;;21050554;28;20450;-58
2022/07/02 21:06:04;;;;;;;5.88;3.88;;;16.70;99.90;;;;;;21050602;28;20027;-57
2022/07/02 21:16:06;;;;;;;7.30;3.00;;;16.40;99.90;;;;;;21049818;28;20393;-57
2022/07/02 21:26:08;;;;;;;5.93;3.50;;;16.20;99.90;;;;;;21049780;28;20088;-57
2022/07/02 21:36:13;;;;;;;4.60;3.30;;;16.20;99.90;;;;;;21051222;28;20052;-57
2022/07/02 21:46:16;;;;;;;4.65;3.70;;;16.20;99.90;;;;;;21112172;28;20053;-51
2022/07/02 21:56:18;;;;;;;4.05;3.63;;;16.30;99.90;;;;;;21131501;28;20035;-56
2022/07/02 22:06:22;;;;;;;6.43;3.13;;;16.20;99.90;;;;;;21132393;28;20549;-56
2022/07/02 22:16:24;;;;;;;5.07;3.20;;;16.00;99.90;;;;;;21132240;28;20043;-50
2022/07/02 22:26:27;;;;;;;5.00;2.95;;;15.90;99.90;;;;;;21143018;28;20073;-49
2022/07/02 22:36:30;;;;;;;3.30;2.47;;;16.00;99.90;;;;;;21147736;28;20430;-57
2022/07/02 22:46:32;;;;;;;4.43;2.55;;;15.90;99.90;;;;;;21148547;28;20085;-58
2022/07/02 22:56:34;;;;;;;2.95;1.92;;;16.00;99.90;;;;;;21147302;28;20057;-58
2022/07/02 23:06:37;;;;;;;2.70;2.03;;;16.00;99.50;;;;;;21146438;28;20069;-48
2022/07/02 23:16:39;;;;;;;3.42;2.10;;;16.00;99.70;;;;;;21145820;28;20097;-58
2022/07/02 23:26:43;;;;;;;3.72;2.45;;;16.10;99.90;;;;;;21127944;28;20044;-57
2022/07/02 23:36:57;;;;;;;4.30;2.00;;;16.30;99.50;;;;;;21143312;28;20156;-57
2022/07/02 23:47:00;;;;;;;2.95;1.42;;;16.40;97.90;;;;;;21107428;28;20036;-52
2022/07/02 23:57:03;;;;;;;1.77;1.20;;;16.40;97.00;;;;;;21058748;28;20031;-57
